Door County Cherryland Airport


Codes: KSUE/
Name: Door County Cherryland Airport
City: Sturgeon Bay
Country: United States
Elevation: 725 ft.

Photos at Door County Cherryland Airport


   Photos courtesy of SpottingLog. You can add your own sightings and photos by signing up for a free trial today.



No photos found.

Weather at Door County Cherryland Airport


Time (UTC)DescriptionTempratureWindCloud coverageVisibilityPressureHumidity
15-Apr-2024 18:00Clear Sky14°C7 mph, N0%10000m1016hPa46%
15-Apr-2024 21:00Clear Sky13°C7 mph, NE0%10000m1017hPa50%
16-Apr-2024 00:00Clear Sky8°C9 mph, E1%10000m1019hPa72%
16-Apr-2024 03:00Clear Sky5°C9 mph, E2%10000m1021hPa77%
16-Apr-2024 06:00Few Clouds4°C7 mph, NE13%10000m1022hPa79%
16-Apr-2024 09:00Broken Clouds4°C9 mph, NE56%10000m1022hPa79%
16-Apr-2024 12:00Broken Clouds4°C9 mph, E68%10000m1022hPa75%
16-Apr-2024 15:00Overcast Clouds7°C16 mph, E98%10000m1022hPa61%
16-Apr-2024 18:00Overcast Clouds8°C13 mph, E99%10000m1020hPa57%
16-Apr-2024 21:00Overcast Clouds8°C22 mph, NE100%10000m1015hPa59%
17-Apr-2024 00:00Overcast Clouds8°C20 mph, E100%10000m1012hPa62%
17-Apr-2024 03:00Light Rain7°C22 mph, E100%7542m1012hPa67%
17-Apr-2024 06:00Moderate Rain5°C22 mph, SE100%10000m1009hPa92%
17-Apr-2024 09:00Light Rain7°C20 mph, SE100%10000m1006hPa92%
17-Apr-2024 12:00Light Rain7°C18 mph, SE100%10000m1003hPa94%
17-Apr-2024 15:00Light Rain7°C22 mph, SE100%10000m1001hPa95%
17-Apr-2024 18:00Heavy Intensity Rain8°C18 mph, N100%0m998hPa98%
17-Apr-2024 21:00Light Rain9°C11 mph, N100%0m997hPa98%
18-Apr-2024 00:00Light Rain10°C13 mph, SW100%10000m997hPa94%
18-Apr-2024 03:00Light Rain7°C20 mph, W100%10000m1000hPa96%
18-Apr-2024 06:00Light Rain7°C20 mph, W99%10000m1003hPa88%
18-Apr-2024 09:00Overcast Clouds6°C20 mph, W97%10000m1007hPa82%
18-Apr-2024 12:00Light Rain6°C18 mph, W98%10000m1011hPa83%
18-Apr-2024 15:00Overcast Clouds6°C13 mph, W98%10000m1013hPa74%
18-Apr-2024 18:00Overcast Clouds10°C13 mph, W98%10000m1012hPa58%
18-Apr-2024 21:00Overcast Clouds11°C18 mph, W100%10000m1011hPa52%
19-Apr-2024 00:00Overcast Clouds9°C16 mph, W97%10000m1013hPa60%
19-Apr-2024 03:00Overcast Clouds7°C13 mph, W91%10000m1014hPa64%
19-Apr-2024 06:00Broken Clouds5°C11 mph, W55%10000m1015hPa72%
19-Apr-2024 09:00Clear Sky3°C16 mph, W1%10000m1015hPa65%
19-Apr-2024 12:00Clear Sky2°C18 mph, W1%10000m1015hPa69%
19-Apr-2024 15:00Few Clouds4°C22 mph, W17%10000m1015hPa53%
19-Apr-2024 18:00Broken Clouds6°C22 mph, W58%10000m1014hPa45%
19-Apr-2024 21:00Overcast Clouds5°C22 mph, W100%10000m1014hPa47%
20-Apr-2024 00:00Overcast Clouds4°C16 mph, W99%10000m1015hPa53%
20-Apr-2024 03:00Overcast Clouds2°C13 mph, W86%10000m1017hPa59%
20-Apr-2024 06:00Broken Clouds1°C13 mph, W59%10000m1018hPa66%
20-Apr-2024 09:00Clear Sky-0°C16 mph, W8%10000m1019hPa71%
20-Apr-2024 12:00Few Clouds0°C13 mph, NW16%10000m1021hPa76%
20-Apr-2024 15:00Broken Clouds3°C13 mph, NW73%10000m1022hPa58%